Disclaimer

Please do not use the information listed here in-flight or in-navigation, as they are not provided to us by the airports but are provided by volunteers, so they might be outdated.

Search


Regions


Airport information page

Radio informations:
RDO - 125.9 MHz

Airport informations:
Latitude: 31° 43' 06.07" S
Longitude: 052° 19' 39.68" W
Elevation: 59 feet - 18 meters
Operating hours: Remarks
Operating agency: Civil government, landing fees and diplomatic clearance may be required
Timezone: UTC-3(-2DT)
Fuel: Jet A1, without icing nhibitor.

100/130 octane gasoline, leaded, MIL-L-5572F (GREEN)

Runway information:
06/24 - 6503 x 138 feet< - >1982 x 42 meters
15/33 - 4035 x 138 feet< - >1230 x 42 meters

Recent METARs:
SBPK 192050Z 15010KT 8000 -RA OVC020 19/18 Q1019
SBPK 192050Z 15010KT 8000 -RA OVC020 19/18 Q1019
SBPK 192050Z 15010KT 8000 -RA OVC020 19/18 Q1019

Airport on the map: